sensor_id;sensor_type;location;lat;lon;timestamp;temperature;humidity
16158;DHT22;8184;60.256;18.694;2022-09-27T00:00:28;10.90;99.90
16158;DHT22;8184;60.256;18.694;2022-09-27T00:02:58;10.90;99.90
16158;DHT22;8184;60.256;18.694;2022-09-27T00:05:26;11.00;99.90
16158;DHT22;8184;60.256;18.694;2022-09-27T00:07:54;11.00;99.90
16158;DHT22;8184;60.256;18.694;2022-09-27T00:10:22;11.00;99.90
16158;DHT22;8184;60.256;18.694;2022-09-27T00:12:51;11.10;99.90
16158;DHT22;8184;60.256;18.694;2022-09-27T00:15:19;11.10;99.90
16158;DHT22;8184;60.256;18.694;2022-09-27T00:17:47;11.10;99.90
16158;DHT22;8184;60.256;18.694;2022-09-27T00:20:20;11.10;99.90
16158;DHT22;8184;60.256;18.694;2022-09-27T00:22:48;11.10;99.90
16158;DHT22;8184;60.256;18.694;2022-09-27T00:25:16;11.20;99.90
16158;DHT22;8184;60.256;18.694;2022-09-27T00:27:45;11.20;99.90
16158;DHT22;8184;60.256;18.694;2022-09-27T00:30:13;11.20;99.90
16158;DHT22;8184;60.256;18.694;2022-09-27T00:32:41;11.20;99.90
16158;DHT22;8184;60.256;18.694;2022-09-27T00:35:09;11.20;99.90
16158;DHT22;8184;60.256;18.694;2022-09-27T00:37:38;11.20;99.90
16158;DHT22;8184;60.256;18.694;2022-09-27T00:40:06;11.20;99.90
16158;DHT22;8184;60.256;18.694;2022-09-27T00:42:35;11.30;99.90
16158;DHT22;8184;60.256;18.694;2022-09-27T00:45:04;11.20;99.90
16158;DHT22;8184;60.256;18.694;2022-09-27T00:47:34;11.20;99.90
16158;DHT22;8184;60.256;18.694;2022-09-27T00:50:05;11.20;99.90
16158;DHT22;8184;60.256;18.694;2022-09-27T00:52:37;11.20;99.90
16158;DHT22;8184;60.256;18.694;2022-09-27T00:55:11;11.20;99.90
16158;DHT22;8184;60.256;18.694;2022-09-27T00:57:39;11.20;99.90
16158;DHT22;8184;60.256;18.694;2022-09-27T01:00:08;11.20;99.90
16158;DHT22;8184;60.256;18.694;2022-09-27T01:02:36;11.20;99.90
16158;DHT22;8184;60.256;18.694;2022-09-27T01:05:06;11.20;99.90
16158;DHT22;8184;60.256;18.694;2022-09-27T01:07:35;11.10;99.90
16158;DHT22;8184;60.256;18.694;2022-09-27T01:10:03;11.10;99.90
16158;DHT22;8184;60.256;18.694;2022-09-27T01:12:35;11.10;99.90
16158;DHT22;8184;60.256;18.694;2022-09-27T01:15:08;11.10;99.90
16158;DHT22;8184;60.256;18.694;2022-09-27T01:17:43;11.10;99.90
16158;DHT22;8184;60.256;18.694;2022-09-27T01:20:19;11.10;99.90
16158;DHT22;8184;60.256;18.694;2022-09-27T01:22:56;11.20;99.90
16158;DHT22;8184;60.256;18.694;2022-09-27T01:25:35;11.10;99.90
16158;DHT22;8184;60.256;18.694;2022-09-27T01:28:19;11.20;99.90
16158;DHT22;8184;60.256;18.694;2022-09-27T01:30:59;11.20;99.90
16158;DHT22;8184;60.256;18.694;2022-09-27T01:33:30;11.10;99.90
16158;DHT22;8184;60.256;18.694;2022-09-27T01:36:04;11.20;99.90
16158;DHT22;8184;60.256;18.694;2022-09-27T01:38:37;11.10;99.90
16158;DHT22;8184;60.256;18.694;2022-09-27T01:41:09;11.10;99.90
16158;DHT22;8184;60.256;18.694;2022-09-27T01:43:41;11.10;99.90
16158;DHT22;8184;60.256;18.694;2022-09-27T01:46:14;11.10;99.90
16158;DHT22;8184;60.256;18.694;2022-09-27T01:48:45;11.10;99.90
16158;DHT22;8184;60.256;18.694;2022-09-27T01:51:15;11.20;99.90
16158;DHT22;8184;60.256;18.694;2022-09-27T01:53:44;11.20;99.90
16158;DHT22;8184;60.256;18.694;2022-09-27T01:56:14;11.10;99.90
16158;DHT22;8184;60.256;18.694;2022-09-27T01:58:44;11.10;99.90
16158;DHT22;8184;60.256;18.694;2022-09-27T02:01:15;11.10;99.90
16158;DHT22;8184;60.256;18.694;2022-09-27T02:03:45;11.10;99.90
16158;DHT22;8184;60.256;18.694;2022-09-27T02:06:15;11.10;99.90
16158;DHT22;8184;60.256;18.694;2022-09-27T02:08:44;11.10;99.90
16158;DHT22;8184;60.256;18.694;2022-09-27T02:11:13;11.10;99.90
16158;DHT22;8184;60.256;18.694;2022-09-27T02:13:43;11.10;99.90
16158;DHT22;8184;60.256;18.694;2022-09-27T02:16:18;11.10;99.90
16158;DHT22;8184;60.256;18.694;2022-09-27T02:18:50;11.10;99.90
16158;DHT22;8184;60.256;18.694;2022-09-27T02:21:18;11.00;99.90
16158;DHT22;8184;60.256;18.694;2022-09-27T02:23:47;11.00;99.90
16158;DHT22;8184;60.256;18.694;2022-09-27T02:26:21;11.00;99.90
16158;DHT22;8184;60.256;18.694;2022-09-27T02:28:52;11.00;99.90
16158;DHT22;8184;60.256;18.694;2022-09-27T02:31:24;11.00;99.90
16158;DHT22;8184;60.256;18.694;2022-09-27T02:33:53;10.90;99.90
16158;DHT22;8184;60.256;18.694;2022-09-27T02:36:22;10.90;99.90
16158;DHT22;8184;60.256;18.694;2022-09-27T02:38:50;10.90;99.90
16158;DHT22;8184;60.256;18.694;2022-09-27T02:41:19;10.90;99.90
16158;DHT22;8184;60.256;18.694;2022-09-27T02:43:49;10.90;99.90
16158;DHT22;8184;60.256;18.694;2022-09-27T02:46:24;11.00;99.90
16158;DHT22;8184;60.256;18.694;2022-09-27T02:49:02;11.00;99.90
16158;DHT22;8184;60.256;18.694;2022-09-27T02:51:36;10.90;99.90
16158;DHT22;8184;60.256;18.694;2022-09-27T02:54:11;11.00;99.90
16158;DHT22;8184;60.256;18.694;2022-09-27T02:56:43;11.00;99.90
16158;DHT22;8184;60.256;18.694;2022-09-27T02:59:17;11.00;99.90
16158;DHT22;8184;60.256;18.694;2022-09-27T03:01:50;11.00;99.90
16158;DHT22;8184;60.256;18.694;2022-09-27T03:04:22;11.10;99.90
16158;DHT22;8184;60.256;18.694;2022-09-27T03:06:54;11.10;99.90
16158;DHT22;8184;60.256;18.694;2022-09-27T03:09:23;11.10;99.90
16158;DHT22;8184;60.256;18.694;2022-09-27T03:11:51;11.10;99.90
16158;DHT22;8184;60.256;18.694;2022-09-27T03:14:20;11.10;99.90
16158;DHT22;8184;60.256;18.694;2022-09-27T03:16:50;11.10;99.90
16158;DHT22;8184;60.256;18.694;2022-09-27T03:19:18;11.10;99.90
16158;DHT22;8184;60.256;18.694;2022-09-27T03:21:46;11.20;99.90
16158;DHT22;8184;60.256;18.694;2022-09-27T03:24:14;11.20;99.90
16158;DHT22;8184;60.256;18.694;2022-09-27T03:26:42;11.30;99.90
16158;DHT22;8184;60.256;18.694;2022-09-27T03:29:10;11.30;99.90
16158;DHT22;8184;60.256;18.694;2022-09-27T03:31:38;11.30;99.90
16158;DHT22;8184;60.256;18.694;2022-09-27T03:34:08;11.30;99.90
16158;DHT22;8184;60.256;18.694;2022-09-27T03:36:36;11.40;99.90
16158;DHT22;8184;60.256;18.694;2022-09-27T03:39:04;11.40;99.90
16158;DHT22;8184;60.256;18.694;2022-09-27T03:41:32;11.40;99.90
16158;DHT22;8184;60.256;18.694;2022-09-27T03:44:01;11.40;99.90
16158;DHT22;8184;60.256;18.694;2022-09-27T03:46:29;11.40;99.90
16158;DHT22;8184;60.256;18.694;2022-09-27T03:48:57;11.40;99.90
16158;DHT22;8184;60.256;18.694;2022-09-27T03:51:26;11.30;99.90
16158;DHT22;8184;60.256;18.694;2022-09-27T03:53:54;11.40;99.90
16158;DHT22;8184;60.256;18.694;2022-09-27T03:56:23;11.40;99.90
16158;DHT22;8184;60.256;18.694;2022-09-27T03:58:51;11.40;99.90
16158;DHT22;8184;60.256;18.694;2022-09-27T04:01:19;11.40;99.90
16158;DHT22;8184;60.256;18.694;2022-09-27T04:03:47;11.40;99.90
16158;DHT22;8184;60.256;18.694;2022-09-27T04:06:15;11.40;99.90
16158;DHT22;8184;60.256;18.694;2022-09-27T04:08:46;11.40;99.90
16158;DHT22;8184;60.256;18.694;2022-09-27T04:11:14;11.40;99.90
16158;DHT22;8184;60.256;18.694;2022-09-27T04:13:44;11.50;99.90
16158;DHT22;8184;60.256;18.694;2022-09-27T04:16:14;11.50;99.90
16158;DHT22;8184;60.256;18.694;2022-09-27T04:18:43;11.60;99.90
16158;DHT22;8184;60.256;18.694;2022-09-27T04:21:12;11.60;99.90
16158;DHT22;8184;60.256;18.694;2022-09-27T04:23:40;11.60;99.90
16158;DHT22;8184;60.256;18.694;2022-09-27T04:26:09;11.50;99.90
16158;DHT22;8184;60.256;18.694;2022-09-27T04:28:37;11.60;99.90
16158;DHT22;8184;60.256;18.694;2022-09-27T04:31:06;11.60;99.90
16158;DHT22;8184;60.256;18.694;2022-09-27T04:33:34;11.50;99.90
16158;DHT22;8184;60.256;18.694;2022-09-27T04:36:02;11.50;99.90
16158;DHT22;8184;60.256;18.694;2022-09-27T04:38:48;11.50;99.90
16158;DHT22;8184;60.256;18.694;2022-09-27T04:41:17;11.50;99.90
16158;DHT22;8184;60.256;18.694;2022-09-27T04:43:47;11.50;99.90
16158;DHT22;8184;60.256;18.694;2022-09-27T04:46:15;11.60;99.90
16158;DHT22;8184;60.256;18.694;2022-09-27T04:48:43;11.60;99.90
16158;DHT22;8184;60.256;18.694;2022-09-27T04:51:11;11.60;99.90
16158;DHT22;8184;60.256;18.694;2022-09-27T04:53:42;11.60;99.90
16158;DHT22;8184;60.256;18.694;2022-09-27T04:56:10;11.60;99.90
16158;DHT22;8184;60.256;18.694;2022-09-27T04:58:39;11.70;99.90
16158;DHT22;8184;60.256;18.694;2022-09-27T05:01:07;11.60;99.90
16158;DHT22;8184;60.256;18.694;2022-09-27T05:03:36;11.70;99.90
16158;DHT22;8184;60.256;18.694;2022-09-27T05:06:04;11.70;99.90
16158;DHT22;8184;60.256;18.694;2022-09-27T05:08:35;11.70;99.90
16158;DHT22;8184;60.256;18.694;2022-09-27T05:11:03;11.80;99.90
16158;DHT22;8184;60.256;18.694;2022-09-27T05:13:31;11.80;99.90
16158;DHT22;8184;60.256;18.694;2022-09-27T05:16:02;11.80;99.90
16158;DHT22;8184;60.256;18.694;2022-09-27T05:18:30;11.80;99.90
16158;DHT22;8184;60.256;18.694;2022-09-27T05:20:59;11.90;99.90
16158;DHT22;8184;60.256;18.694;2022-09-27T05:23:27;11.90;99.90
16158;DHT22;8184;60.256;18.694;2022-09-27T05:25:55;12.00;99.90
16158;DHT22;8184;60.256;18.694;2022-09-27T05:28:23;12.00;99.90
16158;DHT22;8184;60.256;18.694;2022-09-27T05:30:51;12.00;99.90
16158;DHT22;8184;60.256;18.694;2022-09-27T05:33:21;12.00;99.90
16158;DHT22;8184;60.256;18.694;2022-09-27T05:35:52;12.00;99.90
16158;DHT22;8184;60.256;18.694;2022-09-27T05:38:20;12.10;99.90
16158;DHT22;8184;60.256;18.694;2022-09-27T05:40:48;12.10;99.90
16158;DHT22;8184;60.256;18.694;2022-09-27T05:43:17;12.10;99.90
16158;DHT22;8184;60.256;18.694;2022-09-27T05:45:45;12.20;99.90
16158;DHT22;8184;60.256;18.694;2022-09-27T05:48:14;12.30;99.90
16158;DHT22;8184;60.256;18.694;2022-09-27T05:50:43;12.30;99.90
16158;DHT22;8184;60.256;18.694;2022-09-27T05:53:12;12.30;99.90
16158;DHT22;8184;60.256;18.694;2022-09-27T05:55:40;12.30;99.90
16158;DHT22;8184;60.256;18.694;2022-09-27T05:58:09;12.40;99.90
16158;DHT22;8184;60.256;18.694;2022-09-27T06:00:39;12.40;99.90
16158;DHT22;8184;60.256;18.694;2022-09-27T06:03:07;12.40;99.90
16158;DHT22;8184;60.256;18.694;2022-09-27T06:05:38;12.40;99.90
16158;DHT22;8184;60.256;18.694;2022-09-27T06:08:17;12.40;99.90
16158;DHT22;8184;60.256;18.694;2022-09-27T06:10:46;12.50;99.90
16158;DHT22;8184;60.256;18.694;2022-09-27T06:13:17;12.60;99.90
16158;DHT22;8184;60.256;18.694;2022-09-27T06:15:46;12.60;99.90
16158;DHT22;8184;60.256;18.694;2022-09-27T06:18:16;12.70;99.90
16158;DHT22;8184;60.256;18.694;2022-09-27T06:20:44;12.70;99.90
16158;DHT22;8184;60.256;18.694;2022-09-27T06:23:13;12.70;99.90
16158;DHT22;8184;60.256;18.694;2022-09-27T06:25:43;12.70;99.90
16158;DHT22;8184;60.256;18.694;2022-09-27T06:28:11;12.70;99.90
16158;DHT22;8184;60.256;18.694;2022-09-27T06:30:40;12.70;99.90
16158;DHT22;8184;60.256;18.694;2022-09-27T06:33:09;12.80;99.90
16158;DHT22;8184;60.256;18.694;2022-09-27T06:35:38;12.70;99.90
16158;DHT22;8184;60.256;18.694;2022-09-27T06:38:06;12.70;99.90
16158;DHT22;8184;60.256;18.694;2022-09-27T06:40:35;12.60;99.90
16158;DHT22;8184;60.256;18.694;2022-09-27T06:43:06;12.70;99.90
16158;DHT22;8184;60.256;18.694;2022-09-27T06:45:35;12.70;99.90
16158;DHT22;8184;60.256;18.694;2022-09-27T06:48:03;12.70;99.90
16158;DHT22;8184;60.256;18.694;2022-09-27T06:50:32;12.70;99.90
16158;DHT22;8184;60.256;18.694;2022-09-27T06:53:03;12.80;99.90
16158;DHT22;8184;60.256;18.694;2022-09-27T06:55:31;12.80;99.90
16158;DHT22;8184;60.256;18.694;2022-09-27T06:58:00;12.90;99.90
16158;DHT22;8184;60.256;18.694;2022-09-27T07:00:49;12.90;99.90
16158;DHT22;8184;60.256;18.694;2022-09-27T07:03:17;12.90;99.90
16158;DHT22;8184;60.256;18.694;2022-09-27T07:05:53;12.90;99.90
16158;DHT22;8184;60.256;18.694;2022-09-27T07:08:21;13.00;99.90
16158;DHT22;8184;60.256;18.694;2022-09-27T07:10:54;13.00;99.90
16158;DHT22;8184;60.256;18.694;2022-09-27T07:13:22;13.00;99.90
16158;DHT22;8184;60.256;18.694;2022-09-27T07:15:53;13.00;99.90
16158;DHT22;8184;60.256;18.694;2022-09-27T07:18:21;13.10;99.90
16158;DHT22;8184;60.256;18.694;2022-09-27T07:20:49;13.10;99.90
16158;DHT22;8184;60.256;18.694;2022-09-27T07:23:21;13.10;99.90
16158;DHT22;8184;60.256;18.694;2022-09-27T07:25:49;13.10;99.90
16158;DHT22;8184;60.256;18.694;2022-09-27T07:28:17;13.20;99.90
16158;DHT22;8184;60.256;18.694;2022-09-27T07:30:47;13.20;99.90
16158;DHT22;8184;60.256;18.694;2022-09-27T07:33:17;13.20;99.90
16158;DHT22;8184;60.256;18.694;2022-09-27T07:35:45;13.30;99.90
16158;DHT22;8184;60.256;18.694;2022-09-27T07:38:14;13.30;99.90
16158;DHT22;8184;60.256;18.694;2022-09-27T07:40:42;13.20;99.90
16158;DHT22;8184;60.256;18.694;2022-09-27T07:43:10;13.30;99.90
16158;DHT22;8184;60.256;18.694;2022-09-27T07:45:40;13.30;99.90
16158;DHT22;8184;60.256;18.694;2022-09-27T07:48:09;13.30;99.90
16158;DHT22;8184;60.256;18.694;2022-09-27T07:50:40;13.30;99.90
16158;DHT22;8184;60.256;18.694;2022-09-27T07:53:08;13.30;99.90
16158;DHT22;8184;60.256;18.694;2022-09-27T07:55:39;13.30;99.90
16158;DHT22;8184;60.256;18.694;2022-09-27T07:58:08;13.40;99.90
16158;DHT22;8184;60.256;18.694;2022-09-27T08:00:38;13.60;99.90
16158;DHT22;8184;60.256;18.694;2022-09-27T08:03:07;13.70;99.90
16158;DHT22;8184;60.256;18.694;2022-09-27T08:05:35;13.80;99.90
16158;DHT22;8184;60.256;18.694;2022-09-27T08:08:05;13.80;99.90
16158;DHT22;8184;60.256;18.694;2022-09-27T08:10:35;13.90;99.90
16158;DHT22;8184;60.256;18.694;2022-09-27T08:13:09;13.80;99.90
16158;DHT22;8184;60.256;18.694;2022-09-27T08:15:38;13.70;99.90
16158;DHT22;8184;60.256;18.694;2022-09-27T08:18:06;13.60;99.90
16158;DHT22;8184;60.256;18.694;2022-09-27T08:20:35;13.60;99.90
16158;DHT22;8184;60.256;18.694;2022-09-27T08:23:04;13.80;99.90
16158;DHT22;8184;60.256;18.694;2022-09-27T08:25:32;13.90;99.90
16158;DHT22;8184;60.256;18.694;2022-09-27T08:28:01;14.00;99.90
16158;DHT22;8184;60.256;18.694;2022-09-27T08:30:32;14.10;99.90
16158;DHT22;8184;60.256;18.694;2022-09-27T08:33:00;14.20;99.90
16158;DHT22;8184;60.256;18.694;2022-09-27T08:35:30;14.40;99.90
16158;DHT22;8184;60.256;18.694;2022-09-27T08:38:00;14.40;99.90
16158;DHT22;8184;60.256;18.694;2022-09-27T08:40:36;14.30;99.90
16158;DHT22;8184;60.256;18.694;2022-09-27T08:43:09;14.20;99.90
16158;DHT22;8184;60.256;18.694;2022-09-27T08:45:45;14.00;99.90
16158;DHT22;8184;60.256;18.694;2022-09-27T08:48:15;13.90;99.90
16158;DHT22;8184;60.256;18.694;2022-09-27T08:50:44;13.90;99.90
16158;DHT22;8184;60.256;18.694;2022-09-27T08:53:16;14.00;99.90
16158;DHT22;8184;60.256;18.694;2022-09-27T08:55:48;14.10;99.90
16158;DHT22;8184;60.256;18.694;2022-09-27T08:58:18;14.10;99.90
16158;DHT22;8184;60.256;18.694;2022-09-27T09:00:48;14.00;99.90
16158;DHT22;8184;60.256;18.694;2022-09-27T09:03:18;14.00;99.90
16158;DHT22;8184;60.256;18.694;2022-09-27T09:05:51;14.20;99.90
16158;DHT22;8184;60.256;18.694;2022-09-27T09:08:26;14.20;99.90
16158;DHT22;8184;60.256;18.694;2022-09-27T09:11:01;14.10;99.90
16158;DHT22;8184;60.256;18.694;2022-09-27T09:13:54;14.00;99.90
16158;DHT22;8184;60.256;18.694;2022-09-27T09:16:28;14.00;99.90
16158;DHT22;8184;60.256;18.694;2022-09-27T09:19:03;14.00;99.90
16158;DHT22;8184;60.256;18.694;2022-09-27T09:21:33;14.00;99.90
16158;DHT22;8184;60.256;18.694;2022-09-27T09:24:17;14.00;99.90
16158;DHT22;8184;60.256;18.694;2022-09-27T09:26:49;14.00;99.90
16158;DHT22;8184;60.256;18.694;2022-09-27T09:29:33;14.20;99.90
16158;DHT22;8184;60.256;18.694;2022-09-27T09:32:05;14.20;99.90
16158;DHT22;8184;60.256;18.694;2022-09-27T09:34:38;14.30;99.90
16158;DHT22;8184;60.256;18.694;2022-09-27T09:37:10;14.20;99.90
16158;DHT22;8184;60.256;18.694;2022-09-27T09:39:41;14.20;99.90
16158;DHT22;8184;60.256;18.694;2022-09-27T09:42:13;14.10;99.90
16158;DHT22;8184;60.256;18.694;2022-09-27T09:44:45;14.00;99.90
16158;DHT22;8184;60.256;18.694;2022-09-27T09:47:31;14.00;99.90
16158;DHT22;8184;60.256;18.694;2022-09-27T09:50:04;14.00;99.90
16158;DHT22;8184;60.256;18.694;2022-09-27T09:52:36;13.90;99.90
16158;DHT22;8184;60.256;18.694;2022-09-27T09:55:06;13.70;99.90
16158;DHT22;8184;60.256;18.694;2022-09-27T09:57:43;13.60;99.90
16158;DHT22;8184;60.256;18.694;2022-09-27T10:00:14;13.50;99.90
16158;DHT22;8184;60.256;18.694;2022-09-27T10:02:43;13.50;99.90
16158;DHT22;8184;60.256;18.694;2022-09-27T10:05:12;13.50;99.90
16158;DHT22;8184;60.256;18.694;2022-09-27T10:07:41;13.50;99.90
16158;DHT22;8184;60.256;18.694;2022-09-27T10:10:12;13.50;99.90
16158;DHT22;8184;60.256;18.694;2022-09-27T10:12:44;13.60;99.90
16158;DHT22;8184;60.256;18.694;2022-09-27T10:15:13;13.50;99.90
16158;DHT22;8184;60.256;18.694;2022-09-27T10:17:44;13.50;99.90
16158;DHT22;8184;60.256;18.694;2022-09-27T10:20:15;13.60;99.90
16158;DHT22;8184;60.256;18.694;2022-09-27T10:22:47;13.50;99.90
16158;DHT22;8184;60.256;18.694;2022-09-27T10:25:20;13.50;99.90
16158;DHT22;8184;60.256;18.694;2022-09-27T10:27:50;13.40;99.90
16158;DHT22;8184;60.256;18.694;2022-09-27T10:30:21;13.40;99.90
16158;DHT22;8184;60.256;18.694;2022-09-27T10:32:50;13.40;99.90
16158;DHT22;8184;60.256;18.694;2022-09-27T10:35:31;13.40;99.90
16158;DHT22;8184;60.256;18.694;2022-09-27T10:38:15;13.40;99.90
16158;DHT22;8184;60.256;18.694;2022-09-27T10:40:44;13.40;99.90
16158;DHT22;8184;60.256;18.694;2022-09-27T10:43:22;13.50;99.90
16158;DHT22;8184;60.256;18.694;2022-09-27T10:46:06;13.50;99.90
16158;DHT22;8184;60.256;18.694;2022-09-27T10:48:36;13.50;99.90
16158;DHT22;8184;60.256;18.694;2022-09-27T10:51:19;13.50;99.90
16158;DHT22;8184;60.256;18.694;2022-09-27T10:53:49;13.50;99.90
16158;DHT22;8184;60.256;18.694;2022-09-27T10:56:21;13.40;99.90
16158;DHT22;8184;60.256;18.694;2022-09-27T10:58:51;13.40;99.90
16158;DHT22;8184;60.256;18.694;2022-09-27T11:01:19;13.30;99.90
16158;DHT22;8184;60.256;18.694;2022-09-27T11:03:48;13.30;99.90
16158;DHT22;8184;60.256;18.694;2022-09-27T11:06:18;13.20;99.90
16158;DHT22;8184;60.256;18.694;2022-09-27T11:08:47;13.10;99.90
16158;DHT22;8184;60.256;18.694;2022-09-27T11:11:16;13.10;99.90
16158;DHT22;8184;60.256;18.694;2022-09-27T11:13:57;13.10;99.90
16158;DHT22;8184;60.256;18.694;2022-09-27T11:16:30;13.10;99.90
16158;DHT22;8184;60.256;18.694;2022-09-27T11:19:04;13.00;99.90
16158;DHT22;8184;60.256;18.694;2022-09-27T11:21:38;13.00;99.90
16158;DHT22;8184;60.256;18.694;2022-09-27T11:24:15;13.00;99.90
16158;DHT22;8184;60.256;18.694;2022-09-27T11:26:50;13.10;99.90
16158;DHT22;8184;60.256;18.694;2022-09-27T11:29:24;13.00;99.90
16158;DHT22;8184;60.256;18.694;2022-09-27T11:32:01;13.10;99.90
16158;DHT22;8184;60.256;18.694;2022-09-27T11:34:38;13.20;99.90
16158;DHT22;8184;60.256;18.694;2022-09-27T11:37:13;13.30;99.90
16158;DHT22;8184;60.256;18.694;2022-09-27T11:39:47;13.40;99.90
16158;DHT22;8184;60.256;18.694;2022-09-27T11:45:14;13.40;99.90
16158;DHT22;8184;60.256;18.694;2022-09-27T11:48:08;13.50;99.90
16158;DHT22;8184;60.256;18.694;2022-09-27T11:53:35;13.70;99.90
16158;DHT22;8184;60.256;18.694;2022-09-27T11:56:06;13.70;99.90
16158;DHT22;8184;60.256;18.694;2022-09-27T11:58:36;13.70;99.90
16158;DHT22;8184;60.256;18.694;2022-09-27T12:01:11;13.60;99.90
16158;DHT22;8184;60.256;18.694;2022-09-27T12:03:48;13.60;99.90
16158;DHT22;8184;60.256;18.694;2022-09-27T12:06:22;13.50;99.90
16158;DHT22;8184;60.256;18.694;2022-09-27T12:08:58;13.50;99.90
16158;DHT22;8184;60.256;18.694;2022-09-27T12:11:28;13.60;99.90
16158;DHT22;8184;60.256;18.694;2022-09-27T12:13:58;13.50;99.90
16158;DHT22;8184;60.256;18.694;2022-09-27T12:16:30;13.50;99.90
16158;DHT22;8184;60.256;18.694;2022-09-27T12:18:59;13.60;99.90
16158;DHT22;8184;60.256;18.694;2022-09-27T12:21:28;13.60;99.90
16158;DHT22;8184;60.256;18.694;2022-09-27T12:23:58;13.60;99.90
16158;DHT22;8184;60.256;18.694;2022-09-27T12:26:27;13.50;99.90
16158;DHT22;8184;60.256;18.694;2022-09-27T12:28:57;13.50;99.90
16158;DHT22;8184;60.256;18.694;2022-09-27T12:31:28;13.30;99.90
16158;DHT22;8184;60.256;18.694;2022-09-27T12:34:02;13.30;99.90
16158;DHT22;8184;60.256;18.694;2022-09-27T12:36:35;13.40;99.90
16158;DHT22;8184;60.256;18.694;2022-09-27T12:39:08;13.60;99.90
16158;DHT22;8184;60.256;18.694;2022-09-27T12:41:40;13.60;99.90
16158;DHT22;8184;60.256;18.694;2022-09-27T12:44:10;13.60;99.90
16158;DHT22;8184;60.256;18.694;2022-09-27T12:46:43;13.60;99.90
16158;DHT22;8184;60.256;18.694;2022-09-27T12:49:16;13.70;99.90
16158;DHT22;8184;60.256;18.694;2022-09-27T12:51:49;13.60;99.90
16158;DHT22;8184;60.256;18.694;2022-09-27T12:54:24;13.40;99.90
16158;DHT22;8184;60.256;18.694;2022-09-27T12:56:59;13.30;99.90
16158;DHT22;8184;60.256;18.694;2022-09-27T13:02:36;13.30;99.90
16158;DHT22;8184;60.256;18.694;2022-09-27T13:05:48;13.30;99.90
16158;DHT22;8184;60.256;18.694;2022-09-27T13:08:21;13.40;99.90
16158;DHT22;8184;60.256;18.694;2022-09-27T13:10:54;13.40;99.90
16158;DHT22;8184;60.256;18.694;2022-09-27T13:13:24;13.40;99.90
16158;DHT22;8184;60.256;18.694;2022-09-27T13:16:01;13.50;99.90
16158;DHT22;8184;60.256;18.694;2022-09-27T13:18:31;13.50;99.90
16158;DHT22;8184;60.256;18.694;2022-09-27T13:26:53;13.60;99.90
16158;DHT22;8184;60.256;18.694;2022-09-27T13:29:30;13.60;99.90
16158;DHT22;8184;60.256;18.694;2022-09-27T13:34:54;13.60;99.90
16158;DHT22;8184;60.256;18.694;2022-09-27T13:37:29;13.60;99.90
16158;DHT22;8184;60.256;18.694;2022-09-27T13:40:22;13.60;99.90
16158;DHT22;8184;60.256;18.694;2022-09-27T13:42:54;13.60;99.90
16158;DHT22;8184;60.256;18.694;2022-09-27T13:45:32;13.70;99.90
16158;DHT22;8184;60.256;18.694;2022-09-27T13:48:01;13.70;99.90
16158;DHT22;8184;60.256;18.694;2022-09-27T13:50:36;13.70;99.90
16158;DHT22;8184;60.256;18.694;2022-09-27T13:53:07;13.80;99.90
16158;DHT22;8184;60.256;18.694;2022-09-27T13:55:45;13.80;99.90
16158;DHT22;8184;60.256;18.694;2022-09-27T13:58:23;13.80;99.90
16158;DHT22;8184;60.256;18.694;2022-09-27T14:00:54;13.80;99.90
16158;DHT22;8184;60.256;18.694;2022-09-27T14:03:25;13.80;99.90
16158;DHT22;8184;60.256;18.694;2022-09-27T14:05:55;13.70;99.90
16158;DHT22;8184;60.256;18.694;2022-09-27T14:08:25;13.80;99.90
16158;DHT22;8184;60.256;18.694;2022-09-27T14:10:59;13.80;99.90
16158;DHT22;8184;60.256;18.694;2022-09-27T14:13:30;13.80;99.90
16158;DHT22;8184;60.256;18.694;2022-09-27T14:15:59;13.80;99.90
16158;DHT22;8184;60.256;18.694;2022-09-27T14:18:30;13.70;99.90
16158;DHT22;8184;60.256;18.694;2022-09-27T14:21:07;13.80;99.90
16158;DHT22;8184;60.256;18.694;2022-09-27T14:23:37;13.70;99.90
16158;DHT22;8184;60.256;18.694;2022-09-27T14:26:17;13.70;99.90
16158;DHT22;8184;60.256;18.694;2022-09-27T14:28:49;13.70;99.90
16158;DHT22;8184;60.256;18.694;2022-09-27T14:31:17;13.70;99.90
16158;DHT22;8184;60.256;18.694;2022-09-27T14:33:46;13.70;99.90
16158;DHT22;8184;60.256;18.694;2022-09-27T14:36:19;13.70;99.90
16158;DHT22;8184;60.256;18.694;2022-09-27T14:39:12;13.60;99.90
16158;DHT22;8184;60.256;18.694;2022-09-27T14:41:40;13.60;99.90
16158;DHT22;8184;60.256;18.694;2022-09-27T14:44:17;13.60;99.90
16158;DHT22;8184;60.256;18.694;2022-09-27T14:47:15;13.60;99.90
16158;DHT22;8184;60.256;18.694;2022-09-27T14:49:46;13.60;99.90
16158;DHT22;8184;60.256;18.694;2022-09-27T14:52:15;13.50;99.90
16158;DHT22;8184;60.256;18.694;2022-09-27T14:54:53;13.50;99.90
16158;DHT22;8184;60.256;18.694;2022-09-27T14:57:22;13.40;99.90
16158;DHT22;8184;60.256;18.694;2022-09-27T14:59:52;13.40;99.90
16158;DHT22;8184;60.256;18.694;2022-09-27T15:02:20;13.40;99.90
16158;DHT22;8184;60.256;18.694;2022-09-27T15:04:50;13.50;99.90
16158;DHT22;8184;60.256;18.694;2022-09-27T15:07:19;13.30;99.90
16158;DHT22;8184;60.256;18.694;2022-09-27T15:09:48;13.30;99.90
16158;DHT22;8184;60.256;18.694;2022-09-27T15:12:19;13.30;99.90
16158;DHT22;8184;60.256;18.694;2022-09-27T15:14:52;13.30;99.90
16158;DHT22;8184;60.256;18.694;2022-09-27T15:17:21;13.20;99.90
16158;DHT22;8184;60.256;18.694;2022-09-27T15:19:55;13.20;99.90
16158;DHT22;8184;60.256;18.694;2022-09-27T15:22:30;13.20;99.90
16158;DHT22;8184;60.256;18.694;2022-09-27T15:25:07;13.20;99.90
16158;DHT22;8184;60.256;18.694;2022-09-27T15:27:46;13.20;99.90
16158;DHT22;8184;60.256;18.694;2022-09-27T15:30:17;13.20;99.90
16158;DHT22;8184;60.256;18.694;2022-09-27T15:32:49;13.20;99.90
16158;DHT22;8184;60.256;18.694;2022-09-27T15:35:21;13.10;99.90
16158;DHT22;8184;60.256;18.694;2022-09-27T15:37:50;13.10;99.90
16158;DHT22;8184;60.256;18.694;2022-09-27T15:43:02;13.10;99.90
16158;DHT22;8184;60.256;18.694;2022-09-27T15:45:32;13.10;99.90
16158;DHT22;8184;60.256;18.694;2022-09-27T15:48:04;13.10;99.90
16158;DHT22;8184;60.256;18.694;2022-09-27T15:50:33;13.10;99.90
16158;DHT22;8184;60.256;18.694;2022-09-27T15:53:02;13.10;99.90
16158;DHT22;8184;60.256;18.694;2022-09-27T15:55:33;13.10;99.90
16158;DHT22;8184;60.256;18.694;2022-09-27T15:58:03;13.00;99.90
16158;DHT22;8184;60.256;18.694;2022-09-27T16:00:35;13.00;99.90
16158;DHT22;8184;60.256;18.694;2022-09-27T16:03:03;13.00;99.90
16158;DHT22;8184;60.256;18.694;2022-09-27T16:05:31;13.00;99.90
16158;DHT22;8184;60.256;18.694;2022-09-27T16:07:59;13.00;99.90
16158;DHT22;8184;60.256;18.694;2022-09-27T16:10:31;13.00;99.90
16158;DHT22;8184;60.256;18.694;2022-09-27T16:13:02;13.00;99.90
16158;DHT22;8184;60.256;18.694;2022-09-27T16:15:30;13.00;99.90